Humidity-temperature Sensor

Selected Measurement Type: Relative Humidity

 
Relative Humidity [%]     6 entries per hour
Showing data from 3/15/2023 (00:00:00 Z) to 3/14/2023 (00:01:00 Z)
Previous Next [ Day | 3-Days | 7-Days ]
First Last
Prev [ Day | 3-Days | 7-Days ] Next
First Last

Start Time:     :
End Time:     :     
Time (in GMT) :00 :50 :40 :30 :20 :10
Previous Next [ Day | 3-Days | 7-Days ]
First Last
Prev [ Day | 3-Days | 7-Days ] Next
First Last


123 => good data
MM => data is determined as missing
-- => data not received/configured
Back to Top Back to Top
3/15/2023 00:00 to 23:10 83.59 84.33 84.61 84.70 84.57 84.33
3/14/2023 23:00 to 22:10 84.72 84.90 84.72 84.94 84.82 84.37
3/14/2023 22:00 to 21:10 83.36 82.42 81.94 82.54 82.42 83.05
3/14/2023 21:00 to 20:10 82.50 82.89 82.89 82.42 82.89 82.60
3/14/2023 20:00 to 19:10 82.35 82.52 82.83 82.93 82.68 83.28
3/14/2023 19:00 to 18:10 83.28 82.56 83.65 83.65 83.53 83.98
3/14/2023 18:00 to 17:10 84.53 85.23 85.64 85.44 85.35 85.23
3/14/2023 17:00 to 16:10 85.27 85.13 85.21 85.03 85.09 84.90
3/14/2023 16:00 to 15:10 84.47 83.94 84.06 84.39 84.45 84.12
3/14/2023 15:00 to 14:10 83.53 83.28 82.56 82.62 81.74 82.11
3/14/2023 14:00 to 13:10 82.66 82.95 83.11 83.50 83.75 84.33
3/14/2023 13:00 to 12:10 84.80 85.05 84.86 84.84 84.43 84.14
3/14/2023 12:00 to 11:10 83.79 83.65 83.69 83.77 83.63 83.63
3/14/2023 11:00 to 10:10 83.50 83.61 83.63 83.57 83.63 83.63
3/14/2023 10:00 to 9:10 83.75 83.87 84.06 84.14 84.53 84.55
3/14/2023 09:00 to 8:10 84.90 85.15 85.27 84.94 84.59 84.26
3/14/2023 08:00 to 7:10 83.69 83.55 83.71 83.38 83.13 82.95
3/14/2023 07:00 to 6:10 82.66 82.52 82.70 82.64 82.89 82.87
3/14/2023 06:00 to 5:10 83.16 83.16 83.16 82.76 82.60 82.33
3/14/2023 05:00 to 4:10 82.21 82.93 83.46 83.75 83.89 83.87
3/14/2023 04:00 to 3:10 83.69 83.73 83.67 84.22 84.74 85.33
3/14/2023 03:00 to 2:10 85.11 84.86 84.57 84.24 84.41 83.57
3/14/2023 02:00 to 1:10 83.50 83.09 82.74 83.16 83.18 83.09
3/14/2023 01:00 to 0:10 83.24 82.95 83.63 83.59 83.44 83.75